Latest Weather Observations for Swan Hill

IDV60801

Issued at 8:35 pm EDT Sunday 23 November 2014 (issued every 30 minutes, with the page automatically refreshed every 10 minutes)

About weather observations | Map of weather stations | Latest weather observations for VIC | Other Formats
Station Details ID: 077094 Name: SWAN HILL AERODROME Lat: -35.38 Lon: 143.54 Height: 71.0 m
Data from the previous 72 hours. | See also: Recent months at Swan Hill
Date/Time
EDT
Temp
°C
App
Temp
°C
Dew
Point
Rel
Hum
%
Delta-T
°C
Wind Press
QNH
hPa
Press
MSL
hPa
Rain
since 9 am
mm
Dir
 
Spd
km/h
Gust
km/h
Spd
kts
Gust
kts
23/08:30pm 26.7 23.9 6.8 28 10.5 W 11 17 6 9 1013.1 - 0.2
23/08:00pm 27.4 24.1 6.6 26 11.0 W 13 15 7 8 1013.3 - 0.2
23/07:30pm 28.3 24.3 5.1 23 12.0 W 15 22 8 12 1013.4 - 0.2
23/07:00pm 28.9 24.9 5.0 22 12.4 SW 15 22 8 12 1011.4 - 0.2
23/06:30pm 30.0 25.6 4.9 20 13.1 SSW 17 24 9 13 1010.4 - 0.2
23/06:00pm 30.9 27.0 5.3 20 13.5 SSW 15 35 8 19 1010.2 1010.0 0.2
23/05:30pm 31.1 25.9 3.7 17 14.1 WSW 20 28 11 15 1010.2 - 0.2
23/05:00pm 30.6 25.6 4.4 19 13.6 WSW 20 32 11 17 1010.4 - 0.2
23/04:30pm 31.9 25.2 3.6 16 14.6 W 28 37 15 20 1010.7 - 0.2
23/04:00pm 31.1 24.0 3.3 17 14.2 W 30 43 16 23 1010.8 - 0.2
23/03:30pm 32.1 25.8 5.8 19 14.1 W 28 35 15 19 1010.7 - 0.2
23/03:00pm 31.9 25.9 5.4 19 14.1 WNW 26 35 14 19 1010.7 1010.6 0.2
23/02:30pm 31.2 26.3 8.3 24 12.7 WNW 24 32 13 17 1010.8 - 0.2
23/02:00pm 30.3 26.6 9.3 27 11.8 NW 19 28 10 15 1010.9 - 0.2
23/01:30pm 30.4 26.8 10.5 29 11.4 WSW 20 33 11 18 1011.3 - 0.2
23/01:00pm 29.9 25.9 10.5 30 11.1 WSW 22 33 12 18 1011.7 - 0.2
23/12:30pm 29.1 26.4 11.7 34 10.1 W 17 30 9 16 1011.6 - 0.2
23/12:00pm 28.7 26.3 12.5 36 9.5 WSW 17 24 9 13 1011.6 1011.4 0.2
23/11:30am 27.2 26.0 12.9 41 8.4 SSW 11 20 6 11 1011.4 - 0.2
23/11:00am 26.6 25.7 13.6 44 7.7 SSW 11 17 6 9 1011.3 - 0.2
23/10:30am 25.1 25.0 15.0 53 6.1 SSW 9 13 5 7 1011.6 - 0.2
23/10:00am 24.2 25.3 17.1 64 4.4 S 7 11 4 6 1011.6 - 0.0
23/09:30am 22.6 23.3 17.1 71 3.4 S 9 13 5 7 1011.6 - 0.0
23/09:00am 21.7 22.6 17.5 77 2.6 S 9 15 5 8 1011.5 1011.3 1.8
23/08:30am 20.3 20.6 17.0 81 2.0 S 11 15 6 8 1011.1 - 1.8
23/08:00am 18.8 19.2 16.3 85 1.5 SSW 9 13 5 7 1011.0 - 1.8
23/07:30am 18.0 18.8 16.3 90 1.0 WSW 7 9 4 5 1011.2 - 1.8
23/07:00am 17.1 17.0 15.9 93 0.7 SW 11 13 6 7 1011.1 - 1.8
23/06:30am 16.5 16.6 15.5 94 0.6 SW 9 11 5 6 1010.7 - 1.8
23/06:00am 16.6 16.3 15.4 93 0.7 SW 11 13 6 7 1010.2 1010.1 1.8
23/05:30am 16.8 16.5 15.4 91 0.8 WSW 11 13 6 7 1009.9 - 1.8
23/05:00am 17.0 17.5 15.6 91 0.8 NNE 7 9 4 5 1009.9 - 1.8
23/04:30am 17.0 17.1 15.6 91 0.8 NNE 9 11 5 6 1009.8 - 1.8
23/04:00am 17.3 17.8 15.6 90 1.0 NNE 7 9 4 5 1009.7 - 1.8
23/03:30am 17.6 18.2 15.7 89 1.1 NNE 7 7 4 4 1009.6 - 1.8
23/03:00am 18.2 18.5 16.0 87 1.3 NE 9 11 5 6 1009.7 1009.5 1.8
23/02:30am 18.0 18.8 16.3 90 1.0 NE 7 9 4 5 1010.0 - 1.8
23/02:00am 17.6 18.2 16.8 95 0.5 ESE 9 13 5 7 1010.0 - 1.8
23/01:30am 18.5 20.7 17.4 93 0.7 SE 2 7 1 4 1010.1 - 1.8
23/01:00am 18.5 19.6 17.2 92 0.8 SE 7 9 4 5 1010.1 - 1.6
23/12:30am 18.4 20.9 17.2 93 0.7 CALM 0 0 0 0 1009.8 - 1.6
23/12:00am 18.3 20.4 17.1 93 0.7 SE 2 6 1 3 1009.9 1009.7 1.6
 
Date/Time
EDT
Temp
°C
App
Temp
°C
Dew
Point
Rel
Hum
%
Delta-T
°C
Wind Press
QNH
hPa
Press
MSL
hPa
Rain
since 9 am
mm
Dir
 
Spd
km/h
Gust
km/h
Spd
kts
Gust
kts
22/11:30pm 18.1 19.6 16.6 91 0.9 SE 4 7 2 4 1009.7 - 1.6
22/11:00pm 18.4 20.6 16.4 88 1.2 CALM 0 0 0 0 1009.8 - 1.6
22/10:30pm 19.1 21.1 17.0 88 1.3 SE 2 7 1 4 1009.7 - 1.6
22/10:00pm 18.9 19.9 16.9 88 1.2 SE 7 9 4 5 1009.2 - 1.6
22/09:30pm 20.1 21.1 16.8 81 2.0 SE 7 9 4 5 1008.8 - 1.4
22/09:00pm 20.1 21.0 16.5 80 2.2 SSE 7 9 4 5 1008.7 1008.5 1.4
22/08:30pm 20.8 21.3 16.5 76 2.6 SSE 9 11 5 6 1008.3 - 1.4
22/08:00pm 21.2 21.8 16.8 76 2.7 SSE 9 13 5 7 1008.5 - 1.4
22/07:30pm 21.7 21.8 16.6 73 3.1 S 11 17 6 9 1008.9 - 1.4
22/07:00pm 22.6 21.8 16.2 67 3.9 S 15 20 8 11 1007.6 - 1.4
22/06:30pm 22.7 23.9 16.8 69 3.6 SSW 6 13 3 7 1008.3 - 1.4
22/06:00pm 22.7 22.0 15.4 63 4.4 SW 13 26 7 14 1008.8 1008.5 1.2
22/05:30pm 24.8 24.4 15.2 55 5.8 WNW 11 15 6 8 1009.8 - 0.2
22/05:00pm 23.9 22.5 16.6 63 4.5 W 19 20 10 11 1010.2 - 0.2
22/04:30pm 23.2 24.3 16.7 67 4.0 NE 6 19 3 10 1009.2 - 0.2
22/04:18pm 23.1 22.5 16.6 67 4.0 NNW 15 20 8 11 1007.9 - 0.0
22/04:00pm 24.0 24.1 16.5 63 4.6 NW 11 17 6 9 1010.0 - 0.0
22/03:30pm 25.2 22.5 12.8 46 7.2 NNW 19 22 10 12 1009.4 - 0.0
22/03:00pm 26.2 24.1 11.3 39 8.5 N 13 24 7 13 1009.1 1008.6 0.0
22/02:30pm 29.4 24.6 2.6 18 13.4 NW 17 19 9 10 1010.5 - 0.0
22/02:00pm 30.2 26.4 1.7 16 14.1 WSW 11 17 6 9 1010.8 - 0.0
22/01:30pm 30.6 25.0 0.2 14 14.7 WSW 19 26 10 14 1010.7 - 0.0
22/01:00pm 32.5 25.9 -0.7 12 16.0 W 24 32 13 17 1011.1 - 0.0
22/12:30pm 32.0 27.0 1.5 14 15.2 NNW 17 28 9 15 1011.1 - 0.0
22/12:00pm 30.0 23.6 1.2 15 14.1 NNW 24 32 13 17 1011.1 1010.9 0.0
22/11:30am 30.9 24.9 1.3 15 14.6 N 22 30 12 16 1010.8 - 0.0
22/11:00am 29.5 23.6 1.6 16 13.7 N 22 30 12 16 1010.5 - 0.0
22/10:30am 28.8 22.9 2.0 18 13.2 N 22 32 12 17 1010.5 - 0.0
22/10:00am 28.0 22.4 1.4 18 12.9 NNE 20 30 11 16 1010.6 - 0.0
22/09:30am 26.4 20.9 1.7 20 11.9 NNE 20 28 11 15 1010.4 - 0.0
22/09:00am 24.5 19.1 2.2 23 10.7 NE 20 26 11 14 1010.6 1010.4 0.0
22/08:30am 23.3 19.6 4.3 29 9.4 NE 13 19 7 10 1010.8 - 0.0
22/08:00am 20.1 16.6 5.6 38 7.2 NE 13 17 7 9 1010.6 - 0.0
22/07:30am 17.7 14.9 6.9 49 5.4 SSW 11 15 6 8 1010.4 - 0.0
22/07:00am 14.6 12.4 7.8 63 3.4 SSW 9 11 5 6 1010.2 - 0.0
22/06:30am 11.6 9.7 7.5 76 2.0 SSW 7 7 4 4 1010.1 - 0.0
22/06:00am 11.8 9.5 7.5 75 2.1 SSW 9 9 5 5 1009.9 1009.7 0.0
22/05:30am 11.7 9.7 6.2 69 2.6 SSW 6 7 3 4 1010.0 - 0.0
22/05:00am 12.2 10.4 7.0 70 2.5 SSW 6 9 3 5 1009.9 - 0.0
22/04:30am 12.3 11.5 6.7 68 2.7 CALM 0 0 0 0 1010.1 - 0.0
22/04:00am 12.7 11.9 6.7 67 2.9 CALM 0 0 0 0 1010.0 - 0.0
22/03:30am 12.9 12.0 6.2 64 3.2 CALM 0 0 0 0 1010.1 - 0.0
22/03:00am 13.3 12.3 5.7 60 3.6 CALM 0 0 0 0 1010.1 1009.9 0.0
22/02:30am 13.6 12.8 6.3 61 3.5 CALM 0 0 0 0 1010.4 - 0.0
22/02:00am 13.8 12.9 6.1 59 3.7 CALM 0 0 0 0 1010.6 - 0.0
22/01:30am 14.5 13.7 6.7 59 3.8 CALM 0 0 0 0 1010.7 - 0.0
22/01:00am 14.6 13.6 5.8 55 4.2 CALM 0 0 0 0 1011.2 - 0.0
22/12:30am 15.4 14.7 7.1 57 4.1 CALM 0 0 0 0 1011.5 - 0.0
22/12:00am 15.6 14.7 5.9 52 4.7 CALM 0 0 0 0 1011.6 1011.3 0.0
 
Date/Time
EDT
Temp
°C
App
Temp
°C
Dew
Point
Rel
Hum
%
Delta-T
°C
Wind Press
QNH
hPa
Press
MSL
hPa
Rain
since 9 am
mm
Dir
 
Spd
km/h
Gust
km/h
Spd
kts
Gust
kts
21/11:30pm 16.1 15.3 6.5 53 4.7 CALM 0 2 0 1 1011.6 - 0.0
21/11:00pm 17.4 15.2 5.2 44 5.9 SSW 6 7 3 4 1011.7 - 0.0
21/10:30pm 17.9 15.7 5.1 43 6.2 SSW 6 7 3 4 1011.7 - 0.0
21/10:00pm 19.2 16.9 4.8 38 7.0 SSW 6 7 3 4 1011.6 - 0.0
21/09:30pm 21.3 18.6 3.7 31 8.5 SW 7 9 4 5 1011.6 - 0.0
21/09:00pm 22.4 19.6 3.0 28 9.3 SW 7 11 4 6 1011.4 1011.2 0.0
21/08:30pm 23.4 20.0 1.8 24 10.2 WSW 9 11 5 6 1011.3 - 0.0
21/08:00pm 24.9 20.1 0.4 20 11.4 W 15 19 8 10 1011.1 - 0.0
21/07:30pm 26.2 20.5 -0.8 17 12.4 W 19 24 10 13 1010.8 - 0.0
21/07:00pm 26.4 20.6 -1.6 16 12.7 W 19 24 10 13 1010.2 - 0.0
21/06:30pm 26.3 20.6 -0.9 16 12.5 W 19 28 10 15 1009.9 - 0.0
21/06:00pm 27.7 21.7 -1.4 15 13.4 WSW 20 22 11 12 1009.7 1009.5 0.0
21/05:30pm 27.8 22.4 -1.6 14 13.5 W 17 28 9 15 1009.7 - 0.0
21/05:00pm 27.0 21.2 -0.1 17 12.7 WSW 20 30 11 16 1009.8 - 0.0
21/04:30pm 27.2 22.8 0.4 17 12.7 SSW 13 32 7 17 1009.9 - 0.0
21/04:00pm 27.5 22.6 -0.2 16 13.0 W 15 28 8 15 1010.1 - 0.0
21/03:30pm 26.4 22.0 0.5 18 12.2 WSW 13 26 7 14 1010.5 - 0.0
21/03:00pm 26.2 21.2 1.3 19 11.9 W 17 30 9 16 1010.9 1010.7 0.0
21/02:30pm 25.2 19.8 1.0 20 11.4 WSW 19 32 10 17 1011.1 - 0.0
21/02:00pm 24.7 20.5 3.9 26 10.3 SW 15 24 8 13 1011.4 - 0.0
21/01:30pm 24.3 20.6 4.5 27 9.9 SW 13 24 7 13 1011.7 - 0.0
21/01:00pm 23.4 18.4 4.8 30 9.3 WSW 20 32 11 17 1011.8 - 0.0
21/12:30pm 23.1 18.3 5.5 32 8.9 WSW 20 32 11 17 1012.1 - 0.0
21/12:00pm 22.2 17.7 7.1 37 7.8 WSW 20 32 11 17 1012.1 1011.9 0.0
21/11:30am 22.2 17.8 7.4 38 7.7 SW 20 30 11 16 1012.2 - 0.0
21/11:00am 21.2 16.9 9.2 46 6.4 WSW 22 33 12 18 1012.1 - 0.0
21/10:30am 21.0 18.7 10.6 51 5.7 WSW 13 24 7 13 1011.9 - 0.0
21/10:00am 20.2 16.6 10.5 53 5.3 WSW 20 30 11 16 1012.1 - 0.0
21/09:30am 19.0 16.1 10.9 59 4.4 WSW 17 24 9 13 1012.0 - 0.0
21/09:00am 18.3 14.0 10.7 61 4.1 SW 24 33 13 18 1012.1 1011.8 0.0
21/08:30am 17.7 13.1 10.9 64 3.7 SW 26 32 14 17 1011.9 - 0.0
21/08:00am 17.3 13.5 11.0 66 3.4 WSW 22 32 12 17 1011.4 - 0.0
21/07:30am 16.7 13.6 11.6 72 2.8 WSW 19 28 10 15 1010.9 - 0.0
21/07:00am 16.3 14.1 12.1 76 2.3 WSW 15 19 8 10 1010.9 - 0.0
21/06:30am 16.0 13.4 12.0 77 2.2 SW 17 22 9 12 1010.6 - 0.0
21/06:00am 16.0 13.3 11.8 76 2.3 WSW 17 22 9 12 1010.4 1010.2 0.0
21/05:30am 16.0 12.4 11.8 76 2.3 WSW 22 32 12 17 1010.1 - 0.0
21/05:00am 16.0 12.4 12.0 77 2.2 WSW 22 28 12 15 1009.7 - 0.0
21/04:30am 15.6 12.3 11.7 77 2.1 WSW 20 28 11 15 1008.9 - 0.0
21/04:00am 16.3 13.0 12.7 79 2.0 WSW 22 30 12 16 1008.7 - 0.0
21/03:30am 16.4 11.2 12.8 79 2.0 WSW 32 39 17 21 1008.5 - 0.0
21/03:00am 17.5 14.1 13.8 79 2.1 WSW 24 33 13 18 1008.1 1007.9 0.0
21/02:30am 18.5 16.1 14.5 77 2.3 WSW 20 28 11 15 1007.9 - 0.0
21/02:00am 19.5 16.4 15.5 77 2.4 WSW 26 33 14 18 1007.8 - 0.0
21/01:30am 19.9 16.8 14.6 71 3.1 W 24 30 13 16 1007.7 - 0.0
21/01:00am 19.9 17.9 13.8 68 3.5 WNW 17 24 9 13 1007.4 - 0.0
21/12:30am 19.9 18.3 13.8 68 3.5 W 15 19 8 10 1007.3 - 0.0
21/12:00am 20.2 18.9 13.8 66 3.7 WNW 13 17 7 9 1007.4 1007.2 0.0
 
Date/Time
EDT
Temp
°C
App
Temp
°C
Dew
Point
Rel
Hum
%
Delta-T
°C
Wind Press
QNH
hPa
Press
MSL
hPa
Rain
since 9 am
mm
Dir
 
Spd
km/h
Gust
km/h
Spd
kts
Gust
kts
20/11:30pm 20.7 19.6 14.2 66 3.8 WNW 13 15 7 8 1007.7 - 0.0
20/11:00pm 21.4 20.0 14.4 64 4.1 WNW 15 17 8 9 1007.6 - 0.0
20/10:30pm 21.2 20.4 15.0 67 3.7 NNW 13 15 7 8 1007.8 - 0.0
20/10:00pm 21.8 21.0 14.1 61 4.5 N 11 15 6 8 1007.5 - 0.0
20/09:30pm 22.3 21.6 13.3 56 5.2 NNW 9 11 5 6 1007.6 - 0.0
20/09:00pm 22.6 21.7 12.5 53 5.8 NNW 9 11 5 6 1007.2 1007.0 0.0

Other Formats:

Comma delimited format used in spreadsheet applications
http://www.bom.gov.au/fwo/IDV60801/IDV60801.94843.axf

JavaScript Object Notation format (JSON) in row-major order
http://www.bom.gov.au/fwo/IDV60801/IDV60801.94843.json